Temp Humidity Outside  Wind Hi       Low      Outside  Dew Wind Wind              Inside   Inside   Archive
Date Time Index    Temperature Chill Temperature Temperature Humidity Point Speed Hi Direction Rain Barometer Temperature Humidity Period
8/18/02 12:00 AM 82 76.8 76.8 77.1 76.7 100 76.8 0 0 --- 0 29.78 88.2 32 30
8/18/02 12:30 AM 82 76.7 76.7 76.9 76.5 100 76.7 0 0 --- 0 29.781 88 32 30
8/18/02 1:00 AM 82 76.7 76.7 77 76.6 100 76.7 0 0 --- 0 29.771 87.6 32 30
8/18/02 1:30 AM 80 76.4 76.4 76.7 76.1 100 76.4 0 0 --- 0 29.764 86.3 33 30
8/18/02 2:00 AM 80 76 76 76.3 75.8 100 76 0 0 --- 0 29.76 86.9 33 30
8/18/02 2:30 AM 80 75.8 75.8 76.1 75.1 100 75.8 0 0 --- 0 29.752 87.1 32 30
8/18/02 3:00 AM 79 74.9 74.9 75.1 74.6 100 74.9 0 0 --- 0 29.747 87.1 33 30
8/18/02 3:30 AM 79 74.5 74.5 74.8 74.3 100 74.5 0 0 --- 0 29.744 87 33 30
8/18/02 4:00 AM 78 74.3 74.3 74.5 74 100 74.3 0 0 --- 0 29.738 87.1 32 30
8/18/02 4:30 AM 78 74 74 74.3 73.7 100 74 0 0 --- 0 29.739 87.5 33 30
8/18/02 5:00 AM 78 73.5 73.5 73.8 73.3 100 73.5 0 0 --- 0 29.747 87.1 33 30
8/18/02 5:30 AM 77 73.3 73.3 73.5 73.1 100 73.3 0 0 --- 0 29.745 86.4 34 30
8/18/02 6:00 AM 77 73.1 73.1 73.4 72.8 100 73.1 0 0 --- 0 29.754 86.1 34 30
8/18/02 6:30 AM 77 73.1 73.1 73.3 72.8 100 73.1 0 0 --- 0 29.752 86.2 33 30
8/18/02 7:00 AM 78 73.7 73.7 73.9 73.3 100 73.7 0 0 --- 0 29.759 86.4 34 30
8/18/02 7:30 AM 79 75 75 75.9 73.8 100 75 0 0 --- 0 29.759 86.6 35 30
8/18/02 8:00 AM 82 76.5 76.5 76.9 75.9 100 76.5 0 0 --- 0 29.751 86.4 34 30
8/18/02 8:30 AM 84 78.1 78.1 78.9 76.9 100 78.1 0 0 --- 0 29.748 86.2 34 30
8/18/02 9:00 AM 90 80.2 80.2 81.3 78.9 100 80.2 0 1 ESE 0 29.753 86.2 33 30
8/18/02 9:30 AM 99 82.7 82.7 83.7 81.3 100 82.7 0 1 --- 0 29.754 86.2 33 30
8/18/02 10:00 AM 108 84.9 84.9 85.9 83.6 100 84.9 0 1 ESE 0 29.749 86 33 30
8/18/02 10:30 AM 120 86.6 86.6 87.6 85.7 100 86.6 0 1 ESE 0 29.75 85.7 34 30
8/18/02 11:00 AM 131 88.2 88.2 88.9 87.2 100 88.2 0 4 ENE 0 29.741 86.4 33 30
8/18/02 11:30 AM 150 89.7 89.7 91.1 88.7 100 89.7 0 3 ENE 0 29.733 87.2 33 30
8/18/02 12:00 PM 150 92.3 92.3 93.4 91 100 92.3 0 3 NE 0 29.722 87.4 33 30
8/18/02 12:30 PM 150 92.9 92.9 94.6 90.6 100 92.9 0 3 W 0 29.713 87.7 34 30
8/18/02 1:00 PM 150 92.9 92.9 95.6 91 100 92.9 0 4 NE 0 29.711 87.9 34 30
8/18/02 1:30 PM 150 94.5 94.5 97 92.1 100 94.5 0 4 E 0 29.697 87.6 34 30
8/18/02 2:00 PM 150 94 94 96.2 92.2 100 94 0 2 E 0 29.693 87.7 35 30
8/18/02 2:30 PM 150 93.7 93.7 95.1 92.5 100 93.7 0 4 WSW 0 29.683 87.9 35 30
8/18/02 3:00 PM 150 96.9 96.9 98.3 95.1 100 96.9 0 3 SSW 0 29.681 88.3 36 30
8/18/02 3:30 PM 150 96.9 96.9 98.6 95.5 100 96.9 0 4 WSW 0 29.676 89.2 36 30
8/18/02 4:00 PM 150 96.6 96.6 97.5 94.9 100 96.6 0 3 WNW 0 29.673 89.7 36 30
8/18/02 4:30 PM 150 95 95 97.7 93.3 100 95 0 3 SW 0 29.666 90 36 30
8/18/02 5:00 PM 150 94.1 94.1 95.5 92.7 100 94.1 0 3 W 0 29.668 90.3 35 30
8/18/02 5:30 PM 150 93.5 93.5 94 92.8 100 93.5 0 3 WSW 0 29.661 90.5 35 30
8/18/02 6:00 PM 150 92 92 92.7 91.4 100 92 0 2 W 0 29.654 90.1 34 30
8/18/02 6:30 PM 150 91 91 92.1 90.1 100 91 0 2 N 0 29.656 89.6 33 30
8/18/02 7:00 PM 150 89.7 89.7 90.8 88.6 100 89.7 0 1 --- 0 29.664 89.9 34 30
8/18/02 7:30 PM 120 87.4 87.4 88.7 86.1 100 87.4 0 0 --- 0 29.664 90.2 34 30
8/18/02 8:00 PM 108 85 85 86.1 83.9 100 85 0 0 --- 0 29.666 90.4 33 30
8/18/02 8:30 PM 99 83.2 83.2 84 82.4 100 83.2 0 0 --- 0 29.674 90.8 33 30
8/18/02 9:00 PM 93 81.4 81.4 82.4 80.6 100 81.4 0 0 --- 0 29.679 90.5 33 30
8/18/02 9:30 PM 90 79.9 79.9 80.7 79.4 100 79.9 0 0 --- 0 29.691 90 33 30
8/18/02 10:00 PM 87 78.9 78.9 79.4 78.4 100 78.9 0 0 --- 0 29.698 89.3 33 30
8/18/02 10:30 PM 84 78.2 78.2 78.5 78.1 100 78.2 0 0 --- 0 29.698 89.2 33 30
8/18/02 11:00 PM 84 77.8 77.8 78.2 77.2 100 77.8 0 0 --- 0 29.698 89.1 33 30
8/18/02 11:30 PM 82 76.7 76.7 77.1 76.5 100 76.7 0 0 --- 0 29.697 88.6 32 30
8/19/02 12:00 AM 80 76.4 76.4 76.6 75.9 100 76.4 0 0 --- 0 29.702 88.8 32 30
8/19/02 12:30 AM 80 75.9 75.9 76.2 75.6 100 75.9 0 0 --- 0 29.707 88.9 32 30
8/19/02 1:00 AM 80 76 76 76.3 75.6 100 76 0 0 --- 0 29.705 88.2 32 30
8/19/02 1:30 AM 79 75.1 75.1 75.7 74.9 100 75.1 0 0 --- 0 29.704 88.3 32 30
8/19/02 2:00 AM 79 75 75 75.3 74.5 100 75 0 0 --- 0 29.707 88.8 32 30
8/19/02 2:30 AM 79 74.6 74.6 75 74.1 100 74.6 0 0 --- 0 29.71 88.5 31 30
8/19/02 3:00 AM 78 74.3 74.3 74.8 73.8 100 74.3 0 1 --- 0 29.712 88.3 31 30
8/19/02 3:30 AM 78 73.7 73.7 73.9 73.4 100 73.7 0 1 SSE 0 29.718 88.1 31 30
8/19/02 4:00 AM 78 74.4 74.4 75.3 73.9 100 74.4 0 2 SSE 0 29.733 87.6 32 30
8/19/02 4:30 AM 80 75.5 75.5 75.9 75 100 75.5 0 1 SSE 0 29.738 87.1 33 30
8/19/02 5:00 AM 79 75.1 75.1 75.5 74.8 100 75.1 0 1 --- 0 29.745 87 32 30
8/19/02 5:30 AM 80 75.5 75.5 76.5 73.8 100 75.5 0 2 SSE 0 29.753 87.1 33 30
8/19/02 6:00 AM 80 75.6 75.6 78.3 73.5 100 75.6 0 0 --- 0 29.758 86.7 33 30
8/19/02 6:30 AM 77 72.6 72.6 73.4 72 100 72.6 0 0 --- 0 29.756 86.5 35 30
8/19/02 7:00 AM 76 72 72 72.3 71.7 100 72 0 0 --- 0 29.758 86.8 34 30
8/19/02 7:30 AM 77 72.6 72.6 73.7 71.8 100 72.6 0 0 --- 0 29.764 87.7 35 30
8/19/02 8:00 AM 80 75.8 75.8 79.8 73.7 100 75.8 0 1 SSE 0 29.773 87.9 34 30
8/19/02 8:30 AM 87 79.4 79.4 81.2 78.1 100 79.4 0 2 SSE 0 29.766 87.9 33 30
8/19/02 9:00 AM 90 80.3 80.3 82.1 78.2 100 80.3 0 1 SSE 0 29.767 87.9 34 30
8/19/02 9:30 AM 99 82.5 82.5 84.5 81.2 100 82.5 0 1 SSE 0 29.768 87.4 36 30
8/19/02 10:00 AM 96 82.3 82.3 84.4 80.5 100 82.3 0 2 SSE 0 29.778 87 33 30
8/19/02 10:30 AM 103 84.1 84.1 85.6 82.9 100 84.1 0 3 SSE 0 29.794 87.5 34 30
8/19/02 11:00 AM 108 85 85 86.4 83.9 100 85 0 3 SE 0 29.79 86.9 33 30
8/19/02 11:30 AM 131 87.7 87.7 89.1 86.4 100 87.7 0 1 SE 0 29.785 87.6 35 30
8/19/02 12:00 PM 144 89.4 89.4 91.2 88.1 100 89.4 0 2 S 0 29.777 87.9 34 30
8/19/02 12:30 PM 150 90.7 90.7 92.1 89.4 100 90.7 0 2 ESE 0 29.765 88.3 33 30
8/19/02 1:00 PM 150 92.3 92.3 94.4 90.8 100 92.3 0 4 WSW 0 29.746 89.3 34 30
8/19/02 1:30 PM 150 93.7 93.7 96.1 92 100 93.7 0 4 WSW 0 29.748 88.6 33 30
8/19/02 2:00 PM 150 94.2 94.2 95.5 93 100 94.2 0 4 W 0 29.74 88.6 33 30
8/19/02 2:30 PM 150 94.1 94.1 95.3 92.9 100 94.1 1 5 WSW 0 29.727 88.6 33 30
8/19/02 3:00 PM 150 94.4 94.4 95.4 93.6 100 94.4 1 6 WSW 0 29.729 88.9 33 30
8/19/02 3:30 PM 150 94.5 94.5 95.7 93.7 100 94.5 1 6 WSW 0 29.716 88.8 33 30
8/19/02 4:00 PM 150 93.6 93.6 94.7 92.5 100 93.6 1 4 WSW 0 29.711 89 33 30
8/19/02 4:30 PM 150 92.8 92.8 93.6 92.1 100 92.8 0 4 SW 0 29.697 88.8 34 30
8/19/02 5:00 PM 150 91.8 91.8 92.8 90.2 100 91.8 0 5 WSW 0 29.686 88.9 34 30
8/19/02 5:30 PM 150 90.4 90.4 91.1 89.8 100 90.4 0 3 S 0 29.671 89.2 34 30
8/19/02 6:00 PM 150 90.3 90.3 90.6 89.9 100 90.3 0 3 WSW 0 29.664 89.7 34 30
8/19/02 6:30 PM 144 88.5 88.5 90 87.7 100 88.5 0 1 WSW 0 29.664 89.3 33 30
8/19/02 7:00 PM 131 88 88 89.2 86.4 100 88 0 2 WSW 0 29.672 89.2 33 30
8/19/02 7:30 PM 113 85.6 85.6 86.6 83.6 100 85.6 0 0 --- 0 29.675 89.2 33 30
8/19/02 8:00 PM 99 82.5 82.5 83.5 81.2 100 82.5 0 0 --- 0 29.673 89.1 33 30
8/19/02 8:30 PM 90 80 80 81.2 79 100 80 0 0 --- 0 29.68 89.4 34 30
8/19/02 9:00 PM 87 78.7 78.7 79.1 77.8 100 78.7 0 1 --- 0 29.693 89.2 33 30
8/19/02 9:30 PM 90 79.5 79.5 80.1 79 100 79.5 0 1 --- 0 29.703 89.7 33 30
8/19/02 10:00 PM 84 78.1 78.1 79.2 77.5 100 78.1 0 0 --- 0 29.71 89.8 33 30
8/19/02 10:30 PM 82 77.2 77.2 78.4 76.3 100 77.2 0 0 --- 0 29.71 89.3 32 30
8/19/02 11:00 PM 80 76.2 76.2 76.4 75.7 100 76.2 0 0 --- 0 29.711 88.6 32 30
8/19/02 11:30 PM 79 75.1 75.1 75.8 74.5 100 75.1 0 0 --- 0 29.712 88.5 31 30
8/20/02 12:00 AM 79 74.7 74.7 74.9 74.4 100 74.7 0 0 --- 0 29.716 88 31 30
8/20/02 12:30 AM 79 74.5 74.5 74.7 74.2 100 74.5 0 0 --- 0 29.714 87.6 31 30
8/20/02 1:00 AM 79 74.7 74.7 75.2 74.3 100 74.7 0 0 --- 0 29.71 87.5 32 30
8/20/02 1:30 AM 78 74.1 74.1 74.6 73.7 100 74.1 0 0 --- 0 29.707 87.7 31 30
8/20/02 2:00 AM 77 73.3 73.3 73.8 73 100 73.3 0 0 --- 0 29.702 87.6 32 30
8/20/02 2:30 AM 77 73.2 73.2 73.4 72.9 100 73.2 0 0 --- 0 29.697 87.5 32 30
8/20/02 3:00 AM 78 73.5 73.5 73.7 73.3 100 73.5 0 0 --- 0 29.697 87.3 32 30
8/20/02 3:30 AM 78 74.1 74.1 74.4 73.6 100 74.1 0 0 --- 0 29.698 87.3 33 30
8/20/02 4:00 AM 79 75.3 75.3 75.9 74.4 100 75.3 0 2 WSW 0 29.711 87.3 33 30
8/20/02 4:30 AM 80 75.5 75.5 77.4 74.6 100 75.5 0 3 WSW 0 29.721 87.2 33 30
8/20/02 5:00 AM 80 75.7 75.7 77.4 71.7 100 75.7 0 3 WSW 0.02 29.745 87 33 30
8/20/02 5:30 AM 75 71 71 71.6 70.1 100 71 0 3 WSW 0.02 29.737 86.9 34 30
8/20/02 6:00 AM 74 70 70 70.6 69.2 100 70 0 3 WSW 0.16 29.77 86.5 34 30
8/20/02 6:30 AM 72 69.2 69.2 69.5 68.7 100 69.2 0 0 --- 0.04 29.767 86.4 35 30
8/20/02 7:00 AM 70 68.3 68.3 68.7 68 100 68.3 0 0 --- 0 29.793 86.4 38 30
8/20/02 7:30 AM 70 68.1 68.1 68.7 67.8 100 68.1 0 0 --- 0 29.796 87 36 30
8/20/02 8:00 AM 72 69.1 69.1 69.4 68.7 100 69.1 0 2 WSW 0 29.804 87.7 36 30
8/20/02 8:30 AM 74 69.9 69.9 70.2 69.5 100 69.9 0 1 WSW 0 29.806 87.7 35 30
8/20/02 9:00 AM 75 71.1 71.1 72.3 70.2 100 71.1 0 0 --- 0 29.81 87.6 34 30
8/20/02 9:30 AM 78 73.7 73.7 75.8 72.3 100 73.7 0 1 WSW 0 29.815 87.3 34 30
8/20/02 10:00 AM 79 75 75 76.7 74 100 75 0 4 SW 0 29.826 87.6 35 30
8/20/02 10:30 AM 79 75.4 75.4 77 74.1 100 75.4 0 3 SSE 0 29.836 87.5 35 30
8/20/02 11:00 AM 80 76.3 76.3 78.9 75.1 100 76.3 0 3 SW 0 29.843 87.7 34 30
8/20/02 11:30 AM 84 77.6 77.6 78.7 76.5 100 77.6 1 6 WSW 0 29.86 87.7 34 30
8/20/02 12:00 PM 84 77.9 77.9 79.5 76.5 100 77.9 1 7 WSW 0 29.864 87.6 33 30
8/20/02 12:30 PM 87 79.3 79.3 81.6 77.4 100 79.3 1 7 WSW 0 29.863 87.5 34 30
8/20/02 1:00 PM 93 81.4 81.4 83.1 79.4 100 81.4 0 6 WSW 0 29.854 87.6 33 30
8/20/02 1:30 PM 103 83.6 83.6 84.8 81.3 100 83.6 1 7 WSW 0 29.853 87.5 34 30
8/20/02 2:00 PM 108 84.7 84.7 85.8 82.1 100 84.7 1 6 WSW 0 29.856 87.5 33 30
8/20/02 2:30 PM 103 83.6 83.6 86.7 81.6 100 83.6 1 5 WSW 0 29.853 87.2 33 30
8/20/02 3:00 PM 103 83.5 83.5 85.7 82.1 100 83.5 1 7 WSW 0 29.86 87.1 33 30
8/20/02 3:30 PM 99 83.4 83.4 84.6 82.5 100 83.4 1 6 WSW 0 29.868 87.3 33 30
8/20/02 4:00 PM 103 84 84 85.4 82.9 100 84 1 5 WSW 0 29.867 87.3 33 30
8/20/02 4:30 PM 103 84.2 84.2 86.2 81.9 100 84.2 0 3 SW 0 29.866 87.2 33 30
8/20/02 5:00 PM 99 83 83 84.2 81.8 100 83 0 4 SW 0 29.865 87.3 33 30
8/20/02 5:30 PM 103 84 84 84.8 82.8 100 84 0 2 WSW 0 29.868 87.7 33 30
8/20/02 6:00 PM 99 82.8 82.8 83.5 82.1 100 82.8 0 3 SSE 0 29.878 87.8 33 30
8/20/02 6:30 PM 96 82.3 82.3 83 81.2 100 82.3 0 3 WSW 0 29.887 87.5 33 30
8/20/02 7:00 PM 90 80.1 80.1 81.2 79.2 100 80.1 0 2 SE 0 29.896 87.4 32 30
8/20/02 7:30 PM 87 78.7 78.7 79.3 77.9 100 78.7 0 2 SSE 0 29.912 87.1 33 30
8/20/02 8:00 PM 82 77.4 77.4 77.9 76.8 100 77.4 0 2 SW 0 29.919 87 33 30
8/20/02 8:30 PM 80 76.2 76.2 76.8 75.4 100 76.2 0 1 --- 0 29.933 86.8 33 30
8/20/02 9:00 PM 79 75.1 75.1 75.7 74.4 100 75.1 0 0 --- 0 29.946 86.4 33 30
8/20/02 9:30 PM 78 73.6 73.6 74.6 72.7 100 73.6 0 0 --- 0 29.96 86.1 33 30
8/20/02 10:00 PM 76 71.8 71.8 72.7 71.3 100 71.8 0 0 --- 0 29.967 86.1 34 30
8/20/02 10:30 PM 76 71.8 71.8 75.8 70.7 100 71.8 0 0 --- 0 29.974 86.3 33 30
8/20/02 11:00 PM 78 73.7 73.7 76.5 69.9 100 73.7 0 0 --- 0 29.98 86.3 34 30
8/20/02 11:30 PM 72 68.8 68.8 70.3 68.2 100 68.8 0 0 --- 0 29.987 86.8 35 30
8/21/02 12:00 AM 70 68 68 68.5 67.5 100 68 0 0 --- 0 29.995 87 34 30
8/21/02 12:30 AM 66.9 66.9 66.9 67.4 66.3 100 66.9 0 0 --- 0 29.998 87 34 30
8/21/02 1:00 AM 66.3 66.3 66.3 66.9 65.7 100 66.3 0 0 --- 0 29.999 87.1 34 30
8/21/02 1:30 AM 65.4 65.4 65.4 65.9 65 100 65.4 0 0 --- 0 30.005 86.3 35 30
8/21/02 2:00 AM 64.7 64.7 64.7 65.5 64.3 100 64.7 0 0 --- 0 30.017 86 36 30
8/21/02 2:30 AM 64.3 64.3 64.3 64.7 64.1 100 64.3 0 0 --- 0 30.022 86 37 30
8/21/02 3:00 AM 63.9 63.9 63.9 64.2 63.6 100 63.9 0 0 --- 0 30.028 86.3 37 30
8/21/02 3:30 AM 64 64 64 64.3 63.7 100 64 0 0 --- 0 30.041 86.5 37 30
8/21/02 4:00 AM 63.8 63.8 63.8 64.1 63.5 100 63.8 0 0 --- 0 30.051 86.4 36 30
8/21/02 4:30 AM 64.2 64.2 64.2 64.7 63.9 100 64.2 0 0 --- 0 30.034 86 38 30
8/21/02 5:00 AM 65.7 65.7 65.7 66.9 64.1 100 65.7 0 2 SW 0 30.06 85.8 38 30
8/21/02 5:30 AM 65.5 65.5 65.5 66.3 65 100 65.5 0 0 --- 0 30.068 85.7 37 30
8/21/02 6:00 AM 65.8 65.8 65.8 66.6 65 100 65.8 0 0 --- 0 30.078 86 38 30
8/21/02 6:30 AM 66.5 66.5 66.5 66.8 66.2 100 66.5 0 0 --- 0 30.087 85.9 38 30
8/21/02 7:00 AM 66 66 66 66.9 64.9 100 66 0 0 --- 0 30.109 86.5 39 30
8/21/02 7:30 AM 66.3 66.3 66.3 68.3 64.9 100 66.3 0 0 --- 0 30.125 86.4 38 30
8/21/02 8:00 AM 72 69.4 69.4 69.8 68.3 100 69.4 0 0 --- 0 30.131 86.5 39 30
8/21/02 8:30 AM 75 71 71 72.2 69.7 100 71 0 3 SW 0 30.136 86.7 38 30
8/21/02 9:00 AM 76 72.4 72.4 73.5 71.5 100 72.4 0 4 SW 0 30.131 86.6 38 30
8/21/02 9:30 AM 78 74.4 74.4 75.4 73.4 100 74.4 0 2 SSE 0 30.134 86.6 37 30
8/21/02 10:00 AM 80 76.3 76.3 77.7 75.2 100 76.3 0 2 S 0 30.14 87 36 30
8/21/02 10:30 AM 84 77.9 77.9 79.1 77.2 100 77.9 0 4 WSW 0 30.144 86.8 36 30
8/21/02 11:00 AM 90 79.5 79.5 80.7 78.2 100 79.5 0 3 WSW 0 30.149 86.6 35 30
8/21/02 11:30 AM 93 81.4 81.4 82.9 80.3 100 81.4 0 3 SE 0 30.143 86.4 35 30
8/21/02 12:00 PM 99 82.9 82.9 84.1 82.2 100 82.9 0 3 S 0 30.134 86.2 34 30
8/21/02 12:30 PM 99 82.7 82.7 84.8 79.6 100 82.7 0 4 ESE 0 30.13 86.2 34 30
8/21/02 1:00 PM 103 83.7 83.7 86.1 79.5 100 83.7 0 3 SE 0 30.122 86 33 30
8/21/02 1:30 PM 113 85.7 85.7 86.6 84.5 100 85.7 1 3 WSW 0 30.12 86 33 30
8/21/02 2:00 PM 113 86.2 86.2 87.2 84.6 100 86.2 1 4 SSE 0 30.114 86.1 33 30
8/21/02 2:30 PM 120 86.6 86.6 87.4 85.5 100 86.6 0 4 SSW 0 30.102 86.2 33 30
8/21/02 3:00 PM 120 86.8 86.8 87.5 85.5 100 86.8 0 4 ESE 0 30.098 86.3 33 30
8/21/02 3:30 PM 113 86.4 86.4 87.3 85.1 100 86.4 0 2 SE 0 30.098 86.3 33 30
8/21/02 4:00 PM 113 86 86 86.8 85.3 100 86 1 3 ESE 0 30.077 86.1 33 30
8/21/02 4:30 PM 108 85.3 85.3 85.8 84.6 100 85.3 0 3 ESE 0 30.07 86.1 33 30
8/21/02 5:00 PM 103 84.2 84.2 84.8 83.7 100 84.2 0 2 ESE 0 30.071 86.2 33 30
8/21/02 5:30 PM 99 82.8 82.8 83.9 81.9 100 82.8 0 3 ESE 0 30.074 86.2 33 30
8/21/02 6:00 PM 93 81.2 81.2 82 80.6 100 81.2 1 4 E 0 30.081 86.4 33 30
8/21/02 6:30 PM 90 79.9 79.9 80.6 79.1 100 79.9 1 3 E 0 30.084 86.2 33 30
8/21/02 7:00 PM 84 78.3 78.3 79.1 77.8 100 78.3 0 2 E 0 30.087 86.5 33 30
8/21/02 7:30 PM 82 76.8 76.8 77.8 75.9 100 76.8 0 2 E 0 30.085 86.4 33 30
8/21/02 8:00 PM 79 75.1 75.1 76.1 73.7 100 75.1 0 2 E 0 30.094 86.3 33 30
8/21/02 8:30 PM 77 73 73 73.7 72.3 100 73 0 1 --- 0 30.104 86 34 30
8/21/02 9:00 PM 76 72.4 72.4 73 71.2 100 72.4 0 1 E 0 30.112 86.2 34 30
8/21/02 9:30 PM 74 70.1 70.1 71.3 69.4 100 70.1 0 0 --- 0 30.122 85.9 35 30
8/21/02 10:00 PM 72 69 69 69.6 68.2 100 69 0 0 --- 0 30.121 85.9 35 30
8/21/02 10:30 PM 70 68.1 68.1 68.4 67.6 100 68.1 0 0 --- 0 30.123 85.5 36 30
8/21/02 11:00 PM 67.5 67.5 67.5 67.9 67 100 67.5 0 0 --- 0 30.118 85.5 36 30
8/21/02 11:30 PM 66.5 66.5 66.5 67 66.3 100 66.5 0 0 --- 0 30.114 85.4 36 30
8/22/02 12:00 AM 65.9 65.9 65.9 66.3 65.6 100 65.9 0 0 --- 0 30.109 85.6 36 30
8/22/02 12:30 AM 65.2 65.2 65.2 65.8 64.9 100 65.2 0 0 --- 0 30.106 85.7 36 30
8/22/02 1:00 AM 65.1 65.1 65.1 65.7 64.5 100 65.1 0 0 --- 0 30.098 84.5 38 30
8/22/02 1:30 AM 64.1 64.1 64.1 65.1 63.5 100 64.1 0 0 --- 0 30.101 85.5 37 30
8/22/02 2:00 AM 63.1 63.1 63.1 63.6 62.7 100 63.1 0 0 --- 0 30.107 85.5 37 30
8/22/02 2:30 AM 62.6 62.6 62.6 63.1 62 100 62.6 0 0 --- 0 30.098 85.7 37 30
8/22/02 3:00 AM 62.1 62.1 62.1 62.3 62 100 62.1 0 0 --- 0 30.099 86.3 37 30
8/22/02 3:30 AM 62 62 62 62.3 61.7 100 62 0 0 --- 0 30.096 86.2 38 30
8/22/02 4:00 AM 61.6 61.6 61.6 62 61.1 100 61.6 0 0 --- 0 30.097 86 38 30
8/22/02 4:30 AM 61.2 61.2 61.2 61.6 60.9 100 61.2 0 0 --- 0 30.098 86.2 38 30
8/22/02 5:00 AM 60.9 60.9 60.9 61.2 60.6 100 60.9 0 0 --- 0 30.091 86.4 39 30
8/22/02 5:30 AM 61 61 61 61.3 60.7 100 61 0 0 --- 0 30.093 86.3 39 30
8/22/02 6:00 AM 60.7 60.7 60.7 61 60.3 100 60.7 0 0 --- 0 30.091 86.4 39 30
8/22/02 6:30 AM 60.7 60.7 60.7 61.1 60.3 100 60.7 0 0 --- 0 30.085 85.8 40 30
8/22/02 7:00 AM 61 61 61 61.9 60.6 100 61 0 0 --- 0 30.078 85.8 40 30
8/22/02 7:30 AM 62.8 62.8 62.8 63.5 61.9 100 62.8 0 0 --- 0 30.084 86.1 41 30
8/22/02 8:00 AM 65 65 65 66.6 63.5 100 65 0 0 --- 0 30.086 85.9 40 30
8/22/02 8:30 AM 70 68.4 68.4 70 66.6 100 68.4 0 0 --- 0 30.075 86.3 41 30
8/22/02 9:00 AM 76 71.6 71.6 74 70 100 71.6 0 1 --- 0 30.076 86.5 40 30
8/22/02 9:30 AM 79 74.7 74.7 76.7 73.8 100 74.7 0 1 ESE 0 30.068 86.5 39 30
8/22/02 10:00 AM 82 76.7 76.7 77.8 75.8 100 76.7 0 1 ESE 0 30.066 86.6 39 30
8/22/02 10:30 AM 84 77.5 77.5 79 76 100 77.5 0 2 NW 0 30.059 86.5 39 30
8/22/02 11:00 AM 87 79.3 79.3 81.5 76.8 100 79.3 0 3 W 0 30.039 86.5 38 30
8/22/02 11:30 AM 93 80.9 80.9 82.8 79.4 100 80.9 1 4 E 0 30.031 86.6 38 30
8/22/02 12:00 PM 96 81.5 81.5 83.7 80.5 100 81.5 0 3 NE 0 30.017 86.6 37 30
8/22/02 12:30 PM 103 84.4 84.4 85.6 82.5 100 84.4 0 5 ESE 0 30.003 86.5 37 30
8/22/02 1:00 PM 120 86.5 86.5 88.3 84.1 100 86.5 0 3 ENE 0 29.98 86.3 36 30
8/22/02 1:30 PM 120 86.5 86.5 88.7 84.3 100 86.5 0 5 ENE 0 29.961 86.4 36 30
8/22/02 2:00 PM 144 89 89 90.6 85.9 100 89 0 4 ENE 0 29.94 86.2 34 30
8/22/02 2:30 PM 150 89.5 89.5 91.2 87.8 100 89.5 0 4 NE 0 29.919 86.3 35 30
8/22/02 3:00 PM 150 90.1 90.1 91 88.9 100 90.1 0 2 E 0 29.903 86.3 34 30
8/22/02 3:30 PM 131 88.2 88.2 90.3 86.7 100 88.2 0 4 E 0 29.888 86.5 34 30
8/22/02 4:00 PM 131 87.9 87.9 89.9 86.7 100 87.9 0 3 NW 0 29.872 86.2 34 30
8/22/02 4:30 PM 144 88.7 88.7 90.1 87.8 100 88.7 0 4 WNW 0 29.86 86.3 34 30
8/22/02 5:00 PM 120 86.6 86.6 88.4 85.2 100 86.6 0 2 N 0 29.848 86.2 34 30
8/22/02 5:30 PM 113 86 86 86.4 85.5 100 86 0 1 N 0 29.839 86.2 33 30
8/22/02 6:00 PM 108 85.3 85.3 85.7 84.8 100 85.3 0 3 N 0 29.828 86.4 34 30
8/22/02 6:30 PM 103 84.4 84.4 84.8 84.1 100 84.4 0 1 --- 0 29.82 86.6 33 30
8/22/02 7:00 PM 103 83.5 83.5 84.4 82.4 100 83.5 0 2 SSE 0 29.806 86.7 34 30
8/22/02 7:30 PM 96 82 82 82.4 81.8 100 82 0 1 SE 0 29.793 86.8 33 30
8/22/02 8:00 PM 99 82.8 82.8 84.9 81.6 100 82.8 0 1 --- 0 29.787 86.6 33 30
8/22/02 8:30 PM 96 82.4 82.4 85.5 81.1 100 82.4 0 1 E 0 29.788 86.6 34 30
8/22/02 9:00 PM 93 81.2 81.2 81.5 80.4 100 81.2 0 3 E 0 29.787 86.6 34 30
8/22/02 9:30 PM 90 79.6 79.6 80.4 78.9 100 79.6 0 2 SSE 0 29.802 86.4 33 30
8/22/02 10:00 PM 82 77 77 79 74.2 100 77 0 2 SSE 0 29.813 86.3 34 30
8/22/02 10:30 PM 77 72.6 72.6 74.2 71 100 72.6 0 2 WNW 0.02 29.825 86.5 34 30
8/22/02 11:00 PM 75 70.8 70.8 71.2 70.5 100 70.8 0 1 --- 0 29.824 86.7 35 30
8/22/02 11:30 PM 75 70.5 70.5 70.7 70.3 100 70.5 0 0 --- 0 29.813 86.4 34 30
8/23/02 12:00 AM 74 70.4 70.4 70.6 70.2 100 70.4 0 0 --- 0 29.804 86.1 35 30
8/23/02 12:30 AM 74 70.4 70.4 70.6 70.3 100 70.4 0 0 --- 0 29.791 86.1 36 30
8/23/02 1:00 AM 75 70.8 70.8 71.1 70.5 100 70.8 0 0 --- 0 29.794 85.8 37 30
8/23/02 1:30 AM 75 71.1 71.1 71.4 70.8 100 71.1 0 0 --- 0.01 29.79 86.2 36 30
8/23/02 2:00 AM 75 70.9 70.9 71.1 70.7 100 70.9 0 0 --- 0 29.785 86 36 30
8/23/02 2:30 AM 75 70.9 70.9 71.1 70.7 100 70.9 0 0 --- 0 29.776 86.2 36 30
8/23/02 3:00 AM 75 71.3 71.3 71.8 71 100 71.3 0 0 --- 0 29.764 86.4 36 30
8/23/02 3:30 AM 76 71.7 71.7 71.9 71.6 100 71.7 0 0 --- 0 29.764 86.7 36 30
8/23/02 4:00 AM 76 71.8 71.8 72 71.6 100 71.8 0 0 --- 0 29.755 86.6 37 30
8/23/02 4:30 AM 76 71.8 71.8 71.9 71.6 100 71.8 0 0 --- 0 29.753 86.5 36 30
8/23/02 5:00 AM 76 71.8 71.8 71.9 71.7 100 71.8 0 0 --- 0.01 29.749 86.1 37 30
8/23/02 5:30 AM 76 71.6 71.6 71.9 71.4 100 71.6 0 0 --- 0 29.753 86 37 30
8/23/02 6:00 AM 75 71.3 71.3 71.4 71.1 100 71.3 0 0 --- 0 29.759 85.9 37 30
8/23/02 6:30 AM 75 71.1 71.1 71.3 71 100 71.1 0 0 --- 0 29.764 85.7 38 30
8/23/02 7:00 AM 76 71.6 71.6 72.4 71 100 71.6 0 1 WNW 0 29.766 86.1 38 30
8/23/02 7:30 AM 78 73.5 73.5 74.9 71.8 100 73.5 0 2 WNW 0 29.772 86.8 37 30
8/23/02 8:00 AM 80 75.7 75.7 76.6 74.8 100 75.7 1 4 WSW 0 29.784 87.1 37 30
8/23/02 8:30 AM 80 76.4 76.4 77.5 75.4 100 76.4 0 5 WSW 0 29.792 87 38 30
8/23/02 9:00 AM 79 74.7 74.7 75.4 74.4 100 74.7 1 5 WSW 0 29.812 86.9 38 30
8/23/02 9:30 AM 79 74.9 74.9 75.2 74.6 100 74.9 1 5 WSW 0 29.825 86.9 37 30
8/23/02 10:00 AM 80 76.2 76.2 76.9 75.1 100 76.2 0 6 WSW 0 29.833 87 37 30
8/23/02 10:30 AM 82 77.2 77.2 78.2 76.3 100 77.2 1 4 WSW 0 29.848 86.8 37 30
8/23/02 11:00 AM 84 78.3 78.3 79.3 77 100 78.3 0 4 WSW 0 29.844 86.7 36 30
8/23/02 11:30 AM 84 78 78 79.5 77.1 100 78 0 4 WSW 0 29.839 86.6 37 30
8/23/02 12:00 PM 84 78.3 78.3 79.6 77.5 100 78.3 0 3 WSW 0 29.842 86.6 36 30
8/23/02 12:30 PM 87 78.5 78.5 80.3 77.7 100 78.5 0 4 WSW 0 29.836 86.5 36 30
8/23/02 1:00 PM 87 78.6 78.6 79.9 78.1 100 78.6 0 4 WSW 0 29.836 86.5 36 30
8/23/02 1:30 PM 84 78.2 78.2 79.4 77.7 100 78.2 0 2 WSW 0 29.84 86.5 36 30
8/23/02 2:00 PM 87 78.7 78.7 79.5 78 100 78.7 0 3 WSW 0 29.839 86.6 36 30
8/23/02 2:30 PM 87 78.8 78.8 79.8 78.2 100 78.8 0 3 WSW 0 29.834 86.5 36 30
8/23/02 3:00 PM 90 79.6 79.6 80.7 78.7 100 79.6 0 5 SSW 0 29.828 86.5 36 30
8/23/02 3:30 PM 84 77.6 77.6 79.2 76.4 100 77.6 0 2 SSW 0 29.831 86.5 35 30
8/23/02 4:00 PM 82 76.7 76.7 77.5 76.2 100 76.7 0 2 ESE 0 29.827 86.4 36 30
8/23/02 4:30 PM 82 77.3 77.3 79.1 76.6 100 77.3 0 2 SSE 0 29.82 86.4 36 30
8/23/02 5:00 PM 84 77.7 77.7 78.6 77.1 100 77.7 0 4 SSE 0 29.812 86.5 36 30
8/23/02 5:30 PM 80 76.4 76.4 77.1 76.1 100 76.4 0 3 ESE 0 29.802 86.6 36 30
8/23/02 6:00 PM 80 75.9 75.9 76.3 75.5 100 75.9 0 2 SSE 0 29.808 86.7 36 30
8/23/02 6:30 PM 80 75.5 75.5 75.8 75.2 100 75.5 0 3 SSE 0 29.813 87 36 30
8/23/02 7:00 PM 80 75.5 75.5 76 75 100 75.5 0 1 SSE 0 29.817 87.2 36 30
8/23/02 7:30 PM 79 74.6 74.6 75.2 74.3 100 74.6 0 1 --- 0 29.82 87.4 38 30
8/23/02 8:00 PM 78 74.3 74.3 74.6 74.1 100 74.3 0 1 SSE 0 29.821 87.4 38 30
8/23/02 8:30 PM 78 73.9 73.9 74.3 73.6 100 73.9 0 0 --- 0 29.826 87.6 37 30
8/23/02 9:00 PM 78 73.6 73.6 73.8 73.4 100 73.6 0 3 SSE 0 29.83 87.8 37 30
8/23/02 9:30 PM 77 73.4 73.4 73.5 73.2 100 73.4 0 3 E 0 29.836 88.1 39 30
8/23/02 10:00 PM 77 73 73 73.3 72.8 100 73 1 3 E 0 29.834 88.7 38 30
8/23/02 10:30 PM 77 72.5 72.5 72.9 72.3 100 72.5 1 4 E 0 29.834 87.8 39 30
8/23/02 11:00 PM 76 72 72 72.3 71.8 100 72 0 3 E 0 29.825 87 39 30
8/23/02 11:30 PM 76 71.7 71.7 71.9 71.3 100 71.7 0 3 E 0 29.828 86.8 39 30
8/24/02 12:00 AM 75 71.3 71.3 71.4 71.1 100 71.3 0 3 E 0 29.815 87.1 39 30
8/24/02 12:30 AM 75 71.1 71.1 71.2 70.9 100 71.1 0 4 E 0 29.816 87.4 39 30
8/24/02 1:00 AM 75 71 71 71.1 70.9 100 71 0 2 E 0 29.812 87.1 39 30
8/24/02 1:30 AM 75 70.9 70.9 71.1 70.4 100 70.9 0 2 ESE 0 29.818 86.9 40 30
8/24/02 2:00 AM 74 69.8 69.8 70.4 69.5 100 69.8 0 2 ESE 0 29.812 86.9 39 30
8/24/02 2:30 AM 74 69.6 69.6 69.7 69.4 100 69.6 0 1 --- 0 29.799 86.9 39 30
8/24/02 3:00 AM 72 69.1 69.1 69.5 68.6 100 69.1 0 1 ESE 0 29.795 86.9 40 30
8/24/02 3:30 AM 72 68.5 68.5 68.7 68 100 68.5 0 1 ESE 0 29.78 86.9 40 30
8/24/02 4:00 AM 70 68.2 68.2 68.5 68 100 68.2 0 0 --- 0 29.781 86.7 40 30
8/24/02 4:30 AM 70 68.1 68.1 68.2 67.9 100 68.1 0 0 --- 0 29.778 86.8 40 30
8/24/02 5:00 AM 70 68 68 68.2 67.7 100 68 0 0 --- 0 29.778 86.7 40 30
8/24/02 5:30 AM 67.9 67.9 67.9 68.1 67.7 100 67.9 0 0 --- 0 29.774 86.9 40 30
8/24/02 6:00 AM 67.9 67.9 67.9 68 67.7 100 67.9 0 0 --- 0 29.777 87 40 30
8/24/02 6:30 AM 67.8 67.8 67.8 68.1 67.4 100 67.8 0 0 --- 0 29.765 87 40 30
8/24/02 7:00 AM 72 68.9 68.9 69.8 68.1 100 68.9 0 0 --- 0 29.758 87 40 30
8/24/02 7:30 AM 74 69.8 69.8 69.9 69.6 100 69.8 0 1 --- 0 29.76 86.9 41 30
8/24/02 8:00 AM 74 69.5 69.5 69.8 69.3 100 69.5 0 1 --- 0 29.751 87 41 30
8/24/02 8:30 AM 74 69.6 69.6 69.8 69.4 100 69.6 0 1 ESE 0 29.753 87 41 30
8/24/02 9:00 AM 72 69.4 69.4 69.9 69 100 69.4 0 0 --- 0 29.754 87.2 40 30
8/24/02 9:30 AM 74 69.5 69.5 69.9 69.2 100 69.5 0 2 ESE 0 29.75 87.3 40 30
8/24/02 10:00 AM 74 69.9 69.9 70.2 69.7 100 69.9 0 2 ESE 0 29.744 87.3 40 30
8/24/02 10:30 AM 74 70.1 70.1 70.2 69.9 100 70.1 0 1 ESE 0 29.739 87.6 40 30
8/24/02 11:00 AM 74 70.2 70.2 70.3 70.1 100 70.2 0 2 ESE 0 29.731 87.7 40 30
8/24/02 11:30 AM 74 70 70 70.2 69.9 100 70 0 1 ESE 0 29.724 87.7 40 30
8/24/02 12:00 PM 75 70.5 70.5 71.1 70 100 70.5 0 1 ESE 0 29.714 87.6 40 30
8/24/02 12:30 PM 75 70.5 70.5 71.3 70 100 70.5 0 2 ESE 0 29.704 87.1 40 30
8/24/02 1:00 PM 75 70.5 70.5 70.8 70.1 100 70.5 0 1 ESE 0 29.692 87.2 40 30
8/24/02 1:30 PM 75 70.8 70.8 71.2 70.5 100 70.8 0 1 --- 0 29.69 87.2 40 30
8/24/02 2:00 PM 76 71.6 71.6 72.6 71 100 71.6 0 1 ESE 0 29.672 87.5 40 30
8/24/02 2:30 PM 76 71.5 71.5 72 71.2 100 71.5 0 2 ESE 0 29.66 88.3 40 30
8/24/02 3:00 PM 76 71.7 71.7 72 71.4 100 71.7 0 0 --- 0 29.647 88.4 41 30
8/24/02 3:30 PM 76 71.9 71.9 72.2 71.6 100 71.9 0 0 --- 0 29.645 88.7 41 30
8/24/02 4:00 PM 75 71.2 71.2 71.7 70.9 100 71.2 0 1 ESE 0 29.628 88.6 41 30
8/24/02 4:30 PM 75 71.2 71.2 71.4 71 100 71.2 0 1 ESE 0 29.626 88.7 41 30
8/24/02 5:00 PM 76 71.5 71.5 72.3 71.2 100 71.5 0 3 SW 0 29.614 88.9 41 30
8/24/02 5:30 PM 76 71.8 71.8 72.1 71.6 100 71.8 0 2 SW 0 29.625 89.2 41 30
8/24/02 6:00 PM 77 72.5 72.5 73.4 71.6 100 72.5 0 0 --- 0 29.607 89.6 41 30
8/24/02 6:30 PM 76 71.8 71.8 71.9 71.6 100 71.8 0 0 --- 0 29.605 90.3 41 30
8/24/02 7:00 PM 76 72 72 72.3 71.7 100 72 0 0 --- 0 29.602 90.6 41 30
8/24/02 7:30 PM 76 71.9 71.9 72.3 71.7 100 71.9 0 0 --- 0 29.584 90.9 42 30
8/24/02 8:00 PM 76 71.8 71.8 72 71.6 100 71.8 0 1 SW 0.01 29.601 90.6 42 30
8/24/02 8:30 PM 74 70.1 70.1 71.7 68.6 100 70.1 1 4 WSW 0.15 29.611 89.7 43 30
8/24/02 9:00 PM 72 69 69 69.2 68.8 100 69 0 2 WSW 0.01 29.606 89.7 43 30
8/24/02 9:30 PM 72 69 69 69.2 68.8 100 69 0 2 WSW 0 29.62 89.8 44 30
8/24/02 10:00 PM 72 68.5 68.5 68.8 68.3 100 68.5 0 2 WSW 0 29.619 90 44 30
8/24/02 10:30 PM 67.9 67.9 67.9 68.3 67.5 100 67.9 0 3 WSW 0 29.618 90.1 44 30
8/24/02 11:00 PM 67.5 67.5 67.5 67.7 67.3 100 67.5 0 1 WSW 0 29.633 90.6 44 30
8/24/02 11:30 PM 67.6 67.6 67.6 67.7 67.4 100 67.6 0 2 WSW 0 29.634 91.5 43 30
8/25/02 12:00 AM 67.4 67.4 67.4 67.7 67 100 67.4 0 1 --- 0 29.634 91.8 43 30
8/25/02 12:30 AM 66.6 66.6 66.6 67.1 66.3 100 66.6 0 0 --- 0 29.64 91.8 43 30
8/25/02 1:00 AM 66 66 66 66.5 65.8 100 66 0 1 WSW 0 29.647 91.9 43 30
8/25/02 1:30 AM 66.1 66.1 66.1 66.2 65.9 100 66.1 0 0 --- 0 29.651 92.3 43 30
8/25/02 2:00 AM 65.7 65.7 65.7 66 65.4 100 65.7 0 1 --- 0 29.648 92.5 43 30
8/25/02 2:30 AM 65.2 65.2 65.2 65.5 64.9 100 65.2 0 1 --- 0 29.649 92.2 43 30
8/25/02 3:00 AM 64.6 64.6 64.6 65.2 64.3 100 64.6 0 0 --- 0 29.639 92.3 43 30
8/25/02 3:30 AM 64.1 64.1 64.1 64.5 63.8 100 64.1 0 1 WSW 0 29.645 92.2 44 30
8/25/02 4:00 AM 63.8 63.8 63.8 64.2 63.5 100 63.8 0 0 --- 0 29.651 92.1 44 30
8/25/02 4:30 AM 63.5 63.5 63.5 63.6 63.2 100 63.5 0 0 --- 0 29.653 91.9 45 30
8/25/02 5:00 AM 63.1 63.1 63.1 63.3 62.8 100 63.1 0 1 --- 0 29.654 91.6 44 30
8/25/02 5:30 AM 62.7 62.7 62.7 63 62.4 100 62.7 0 1 WSW 0 29.663 91.3 44 30
8/25/02 6:00 AM 62.3 62.3 62.3 62.6 62.1 100 62.3 0 0 --- 0 29.678 91.1 44 30
8/25/02 6:30 AM 62.4 62.4 62.4 62.5 62.3 100 62.4 0 0 --- 0 29.691 91.2 44 30
8/25/02 7:00 AM 62.7 62.7 62.7 63.2 62.3 100 62.7 0 0 --- 0 29.7 91.1 46 30
8/25/02 7:30 AM 63.9 63.9 63.9 64.5 63.2 100 63.9 0 1 --- 0 29.704 91.1 41 30
8/25/02 8:00 AM 65 65 65 65.3 64.4 100 65 0 4 WSW 0.01 29.712 90 41 30
8/25/02 8:30 AM 65.9 65.9 65.9 66.6 65.1 100 65.9 0 3 SW 0 29.713 89.3 41 30
8/25/02 9:00 AM 67.4 67.4 67.4 68.3 66.5 100 67.4 0 3 SW 0 29.722 88.8 40 30
8/25/02 9:30 AM 72 69.4 69.4 71 68.3 100 69.4 1 5 SW 0 29.731 88.9 40 30
8/25/02 10:00 AM 76 72 72 73 70.9 100 72 1 5 WSW 0 29.733 89 40 30
8/25/02 10:30 AM 78 74.3 74.3 76.8 72.8 100 74.3 1 6 WSW 0 29.732 89 40 30
8/25/02 11:00 AM 80 75.8 75.8 76.4 75.2 100 75.8 1 6 WSW 0 29.733 88.9 40 30
8/25/02 11:30 AM 84 77.5 77.5 79.9 76.2 100 77.5 1 6 WSW 0 29.729 88.7 39 30
8/25/02 12:00 PM 93 80.8 80.8 82 78.7 100 80.8 1 6 WSW 0 29.722 88.8 39 30
8/25/02 12:30 PM 93 80.7 80.7 82.6 79.3 100 80.7 1 5 WSW 0 29.727 88.9 39 30
8/25/02 1:00 PM 99 82.8 82.8 85.8 79.1 100 82.8 1 6 WSW 0 29.731 88.3 38 30
8/25/02 1:30 PM 99 82.9 82.9 84.9 79.8 100 82.9 1 5 WSW 0 29.734 87.9 38 30
8/25/02 2:00 PM 99 82.5 82.5 85 79.4 100 82.5 1 5 WSW 0 29.74 87.7 38 30
8/25/02 2:30 PM 99 82.9 82.9 85.1 79.7 100 82.9 1 6 WSW 0 29.734 87.7 38 30
8/25/02 3:00 PM 103 84.2 84.2 85.1 83.4 100 84.2 1 6 WSW 0 29.734 87.6 37 30
8/25/02 3:30 PM 108 84.7 84.7 85.5 83.6 100 84.7 1 5 WSW 0 29.727 87.4 37 30
8/25/02 4:00 PM 108 84.9 84.9 85.6 83.8 100 84.9 1 5 WSW 0 29.725 87.4 38 30
8/25/02 4:30 PM 99 83 83 85.2 82.1 100 83 1 4 SW 0 29.726 87.9 38 30
8/25/02 5:00 PM 99 82.5 82.5 83.6 81.4 100 82.5 0 5 WSW 0 29.728 88.1 38 30
8/25/02 5:30 PM 93 81 81 81.8 80.1 100 81 0 3 WSW 0 29.726 88.4 38 30
8/25/02 6:00 PM 93 81.1 81.1 81.8 80.1 100 81.1 0 2 WSW 0 29.73 88.4 37 30
8/25/02 6:30 PM 93 80.8 80.8 81.2 80.4 100 80.8 0 3 WSW 0 29.74 88.3 37 30
8/25/02 7:00 PM 84 78 78 80.4 75.9 100 78 0 2 WSW 0 29.754 88.1 36 30
8/25/02 7:30 PM 78 73.9 73.9 75.9 72.3 100 73.9 0 0 --- 0 29.754 87.7 38 30
8/25/02 8:00 PM 76 72.3 72.3 74.3 71.4 100 72.3 0 0 --- 0 29.763 87.6 39 30
8/25/02 8:30 PM 75 71.3 71.3 74.5 69.6 100 71.3 0 0 --- 0 29.774 87.6 39 30
8/25/02 9:00 PM 72 68.8 68.8 69.8 68.3 100 68.8 0 0 --- 0 29.783 88 40 30
8/25/02 9:30 PM 67.8 67.8 67.8 68.6 67.1 100 67.8 0 0 --- 0 29.789 88.3 40 30
8/25/02 10:00 PM 66.5 66.5 66.5 67.1 66.3 100 66.5 0 0 --- 0 29.789 88.3 40 30
8/25/02 10:30 PM 66.3 66.3 66.3 66.8 65.9 100 66.3 0 0 --- 0 29.806 88.1 39 30
8/25/02 11:00 PM 66.3 66.3 66.3 67 66 100 66.3 0 0 --- 0 29.803 87.4 39 30
8/25/02 11:30 PM 66.9 66.9 66.9 67 66.6 100 66.9 0 0 --- 0 29.806 87.1 39 30
8/26/02 12:00 AM 66.5 66.5 66.5 67 66.1 100 66.5 0 0 --- 0 29.814 86.8 39 30
8/26/02 12:30 AM 66 66 66 66.5 65.3 100 66 0 0 --- 0 29.815 86.6 39 30
8/26/02 1:00 AM 65.1 65.1 65.1 65.7 64.4 100 65.1 0 0 --- 0 29.819 86.5 40 30
8/26/02 1:30 AM 64.1 64.1 64.1 64.4 63.6 100 64.1 0 0 --- 0 29.819 86.6 40 30
8/26/02 2:00 AM 63.6 63.6 63.6 64 63.2 100 63.6 0 0 --- 0 29.817 87 40 30
8/26/02 2:30 AM 63.1 63.1 63.1 63.3 62.8 100 63.1 0 0 --- 0 29.819 87.1 40 30
8/26/02 3:00 AM 62.9 62.9 62.9 63.2 62.5 100 62.9 0 0 --- 0 29.823 86.9 40 30
8/26/02 3:30 AM 62.1 62.1 62.1 62.5 61.8 100 62.1 0 0 --- 0 29.831 86.9 40 30
8/26/02 4:00 AM 61.9 61.9 61.9 62.2 61.4 100 61.9 0 0 --- 0 29.843 86.5 41 30
8/26/02 4:30 AM 61.8 61.8 61.8 62.1 61.3 100 61.8 0 0 --- 0 29.844 86.5 41 30
8/26/02 5:00 AM 61.3 61.3 61.3 61.7 60.8 100 61.3 0 0 --- 0 29.853 86.8 41 30
8/26/02 5:30 AM 60.8 60.8 60.8 61 60.6 100 60.8 0 0 --- 0 29.858 86.6 41 30
8/26/02 6:00 AM 60.4 60.4 60.4 61 59.9 100 60.4 0 0 --- 0 29.863 86.2 41 30
8/26/02 6:30 AM 60.4 60.4 60.4 60.6 60 100 60.4 0 0 --- 0 29.87 86 41 30
8/26/02 7:00 AM 60.8 60.8 60.8 61.4 60.4 100 60.8 0 0 --- 0 29.875 85.8 43 30
8/26/02 7:30 AM 61.9 61.9 61.9 62.9 61.2 100 61.9 0 0 --- 0 29.876 86.2 42 30
8/26/02 8:00 AM 63.8 63.8 63.8 64.9 63 100 63.8 0 0 --- 0 29.876 86 43 30
8/26/02 8:30 AM 66.7 66.7 66.7 68.8 65 100 66.7 0 1 --- 0 29.883 86.2 42 30
8/26/02 9:00 AM 75 70.5 70.5 72 68.8 100 70.5 0 0 --- 0 29.886 86 41 30
8/26/02 9:30 AM 77 72.8 72.8 73.6 72 100 72.8 0 2 WSW 0 29.887 85.8 41 30
8/26/02 10:00 AM 79 74.7 74.7 76.2 73.2 100 74.7 0 2 WSW 0 29.886 85.8 40 30
8/26/02 10:30 AM 80 76 76 76.7 75.5 100 76 0 2 WSW 0 29.885 85.8 40 30
8/26/02 11:00 AM 84 78 78 79.9 76.6 100 78 0 2 WSW 0 29.876 85.6 40 30
8/26/02 11:30 AM 90 79.8 79.8 80.8 78.8 100 79.8 1 4 WSW 0 29.872 85.6 40 30
8/26/02 12:00 PM 93 80.5 80.5 81.2 79.8 100 80.5 0 3 WSW 0 29.867 85.6 40 30
8/26/02 12:30 PM 93 81 81 81.9 80.1 100 81 0 3 WSW 0 29.86 85.7 40 30
8/26/02 1:00 PM 96 81.7 81.7 82.6 80.7 100 81.7 0 3 WSW 0 29.861 85.7 40 30
8/26/02 1:30 PM 99 83.3 83.3 84.2 82.1 100 83.3 0 4 E 0 29.857 85.7 39 30
8/26/02 2:00 PM 108 84.9 84.9 85.9 83.6 100 84.9 0 2 WNW 0 29.844 85.7 39 30
8/26/02 2:30 PM 108 84.5 84.5 85.5 83.3 100 84.5 0 4 W 0 29.84 85.7 39 30
8/26/02 3:00 PM 103 83.6 83.6 84.3 83.1 100 83.6 0 2 W 0 29.831 85.7 39 30
8/26/02 3:30 PM 99 83.2 83.2 84 82.7 100 83.2 0 2 W 0 29.829 85.7 38 30
8/26/02 4:00 PM 99 83.2 83.2 84.3 82.5 100 83.2 0 2 W 0 29.823 85.7 38 30
8/26/02 4:30 PM 103 83.5 83.5 84.4 82.8 100 83.5 0 5 WSW 0 29.818 85.8 38 30
8/26/02 5:00 PM 96 81.6 81.6 83 80.6 100 81.6 1 5 WSW 0 29.809 85.8 37 30
8/26/02 5:30 PM 96 81.7 81.7 82.3 81.3 100 81.7 0 4 WSW 0 29.815 85.9 38 30
8/26/02 6:00 PM 90 79.9 79.9 81.7 78.2 100 79.9 0 3 WSW 0 29.815 86.4 38 30
8/26/02 6:30 PM 84 77.7 77.7 78.4 76.8 100 77.7 0 1 --- 0 29.819 86.7 39 30
8/26/02 7:00 PM 80 75.5 75.5 77 73.8 100 75.5 0 0 --- 0 29.821 86.6 38 30
8/26/02 7:30 PM 77 72.7 72.7 73.8 71.6 100 72.7 0 0 --- 0 29.833 86.5 39 30
8/26/02 8:00 PM 75 70.5 70.5 71.6 69.5 100 70.5 0 0 --- 0 29.839 86.7 39 30
8/26/02 8:30 PM 72 69.3 69.3 69.5 69.1 100 69.3 0 0 --- 0 29.845 86.2 40 30
8/26/02 9:00 PM 70 68.1 68.1 69.1 67.9 100 68.1 0 0 --- 0 29.853 86.1 40 30
8/26/02 9:30 PM 67.7 67.7 67.7 68 67.5 100 67.7 0 0 --- 0 29.853 85.6 40 30
8/26/02 10:00 PM 67.4 67.4 67.4 67.6 67 100 67.4 0 0 --- 0 29.856 85.6 41 30
8/26/02 10:30 PM 66.5 66.5 66.5 67.1 65.7 100 66.5 0 0 --- 0 29.851 85.5 41 30
8/26/02 11:00 PM 65.3 65.3 65.3 65.9 64.8 100 65.3 0 0 --- 0 29.853 85.8 40 30
8/26/02 11:30 PM 64 64 64 64.8 63.4 100 64 0 0 --- 0 29.855 85.5 40 30
8/27/02 12:00 AM 63.9 63.9 63.9 64.6 63 100 63.9 0 0 --- 0 29.856 85.9 41 30
8/27/02 12:30 AM 63 63 63 63.2 62.5 100 63 0 0 --- 0 29.859 86.6 41 30
8/27/02 1:00 AM 62.4 62.4 62.4 62.8 61.9 100 62.4 0 0 --- 0 29.85 86.8 41 30
8/27/02 1:30 AM 62 62 62 62.5 61.6 100 62 0 0 --- 0 29.854 86.8 41 30
8/27/02 2:00 AM 61.6 61.6 61.6 62 61.5 100 61.6 0 0 --- 0 29.851 86 41 30
8/27/02 2:30 AM 61.6 61.6 61.6 62.2 61.1 100 61.6 0 0 --- 0 29.856 86 41 30
8/27/02 3:00 AM 61.2 61.2 61.2 61.4 60.9 100 61.2 0 0 --- 0 29.856 86 41 30
8/27/02 3:30 AM 60.8 60.8 60.8 61.1 60.6 100 60.8 0 0 --- 0 29.857 85.9 42 30
8/27/02 4:00 AM 60.8 60.8 60.8 61.2 60.5 100 60.8 0 0 --- 0 29.854 85.8 42 30
8/27/02 4:30 AM 60.5 60.5 60.5 60.8 60.2 100 60.5 0 0 --- 0 29.853 85.9 41 30
8/27/02 5:00 AM 60.2 60.2 60.2 60.5 60 100 60.2 0 0 --- 0 29.864 85.7 42 30
8/27/02 5:30 AM 59.9 59.9 59.9 60.2 59.6 100 59.9 0 0 --- 0 29.867 85.8 43 30
8/27/02 6:00 AM 62.6 62.6 62.6 68.2 59.8 100 62.6 0 0 --- 0 29.875 85.7 43 30
8/27/02 6:30 AM 61.4 61.4 61.4 65.7 59.4 100 61.4 0 0 --- 0 29.884 85.5 43 30
8/27/02 7:00 AM 60.3 60.3 60.3 60.8 59.6 100 60.3 0 0 --- 0 29.894 85.4 44 30
8/27/02 7:30 AM 61.6 61.6 61.6 62.7 60.7 100 61.6 0 0 --- 0 29.905 85.6 43 30
8/27/02 8:00 AM 63.8 63.8 63.8 64.8 62.7 100 63.8 0 0 --- 0 29.907 85.9 43 30
8/27/02 8:30 AM 66.4 66.4 66.4 68 64.8 100 66.4 0 0 --- 0 29.914 85.9 43 30
8/27/02 9:00 AM 74 70 70 71.7 68 100 70 0 0 --- 0 29.92 85.7 43 30
8/27/02 9:30 AM 79 75.1 75.1 77.1 71.7 100 75.1 0 4 SW 0 29.923 85.5 42 30
8/27/02 10:00 AM 84 77.6 77.6 78.4 76.8 100 77.6 0 3 WSW 0 29.935 85.4 42 30
8/27/02 10:30 AM 87 79.3 79.3 80.1 78.2 100 79.3 0 3 S 0 29.937 85.3 41 30
8/27/02 11:00 AM 90 79.8 79.8 80.3 79.1 100 79.8 1 5 WSW 0 29.934 85.2 42 30
8/27/02 11:30 AM 93 80.6 80.6 81.9 79.5 100 80.6 1 4 WSW 0 29.933 85.2 41 30
8/27/02 12:00 PM 96 82.1 82.1 83 81.1 100 82.1 1 4 SW 0 29.932 85.2 41 30
8/27/02 12:30 PM 99 82.9 82.9 83.8 82 100 82.9 1 4 WSW 0 29.93 85.2 41 30
8/27/02 1:00 PM 103 84.3 84.3 85.3 83.5 100 84.3 0 4 WSW 0 29.93 85.2 40 30
8/27/02 1:30 PM 108 84.6 84.6 85.9 82.6 100 84.6 0 3 WSW 0 29.929 85.2 40 30
8/27/02 2:00 PM 108 85.3 85.3 85.8 84.6 100 85.3 0 5 WSW 0 29.933 85.4 39 30
8/27/02 2:30 PM 113 86.2 86.2 87 85.3 100 86.2 0 4 WSW 0 29.93 85.4 39 30
8/27/02 3:00 PM 113 86.1 86.1 86.9 85.4 100 86.1 0 2 S 0 29.929 85.4 39 30
8/27/02 3:30 PM 113 86.3 86.3 86.8 85.8 100 86.3 0 3 SSE 0 29.933 85.5 38 30
8/27/02 4:00 PM 113 86 86 87.1 85.1 100 86 0 2 SSW 0 29.935 85.4 38 30
8/27/02 4:30 PM 108 84.8 84.8 85.7 83.3 100 84.8 0 4 SE 0 29.933 85.5 38 30
8/27/02 5:00 PM 99 83.1 83.1 83.3 82.6 100 83.1 0 2 SSE 0 29.945 85.6 38 30
8/27/02 5:30 PM 99 82.5 82.5 83 82.1 100 82.5 0 3 SSW 0 29.95 86.3 40 30
8/27/02 6:00 PM 96 81.9 81.9 82.2 81 100 81.9 0 3 SSE 0 29.956 86.9 38 30
8/27/02 6:30 PM 90 80.4 80.4 81.1 79.7 100 80.4 0 2 ESE 0 29.961 87.1 39 30
8/27/02 7:00 PM 87 79.1 79.1 79.8 78.5 100 79.1 0 1 --- 0 29.969 87.3 37 30
8/27/02 7:30 PM 82 77.4 77.4 78.5 76.2 100 77.4 0 0 --- 0 29.979 87.5 38 30
8/27/02 8:00 PM 79 75.2 75.2 76.2 74.4 100 75.2 0 0 --- 0 29.986 87.6 38 30
8/27/02 8:30 PM 78 73.8 73.8 74.4 73.2 100 73.8 0 0 --- 0 29.999 87.2 39 30
8/27/02 9:00 PM 77 73.4 73.4 74.5 73.1 100 73.4 0 0 --- 0 30.012 86.9 39 30
8/27/02 9:30 PM 84 78.4 78.4 81.1 74.5 100 78.4 0 0 --- 0 30.022 86.5 39 30
8/27/02 10:00 PM 79 75.3 75.3 80.6 73.2 100 75.3 0 0 --- 0 30.021 86.5 40 30
8/27/02 10:30 PM 77 73.1 73.1 73.3 72.8 100 73.1 0 0 --- 0 30.03 86.9 40 30
8/27/02 11:00 PM 76 72.4 72.4 72.8 72.1 100 72.4 0 0 --- 0 30.039 87 39 30
8/27/02 11:30 PM 76 72.4 72.4 72.7 72.1 100 72.4 0 0 --- 0 30.047 86.9 39 30
8/28/02 12:00 AM 76 72.3 72.3 73.1 71.5 100 72.3 0 0 --- 0 30.051 86.7 40 30
8/28/02 12:30 AM 75 71.4 71.4 71.7 71.1 100 71.4 0 0 --- 0 30.057 86.7 40 30
8/28/02 1:00 AM 75 71.3 71.3 71.7 70.7 100 71.3 0 0 --- 0 30.062 86.5 40 30
8/28/02 1:30 AM 76 71.5 71.5 71.9 71.1 100 71.5 0 0 --- 0 30.067 86.6 40 30
8/28/02 2:00 AM 76 71.8 71.8 72 71.6 100 71.8 0 0 --- 0 30.065 86.3 40 30
8/28/02 2:30 AM 76 71.8 71.8 72 71.4 100 71.8 0 0 --- 0 30.063 85.9 40 30
8/28/02 3:00 AM 75 71.3 71.3 71.4 71.2 100 71.3 0 0 --- 0 30.065 85.6 41 30
8/28/02 3:30 AM 75 70.8 70.8 71.3 70.4 100 70.8 0 0 --- 0 30.065 85.4 41 30
8/28/02 4:00 AM 75 70.5 70.5 70.6 70.2 100 70.5 0 0 --- 0 30.068 85.5 41 30
8/28/02 4:30 AM 74 70.2 70.2 70.4 70.1 100 70.2 0 0 --- 0 30.073 85.8 41 30
8/28/02 5:00 AM 75 71 71 71.8 70.1 100 71 0 3 E 0 30.086 85.6 41 30
8/28/02 5:30 AM 76 71.6 71.6 71.8 71.4 100 71.6 0 3 SSE 0 30.091 85.4 41 30
8/28/02 6:00 AM 75 71.3 71.3 71.6 71.1 100 71.3 0 4 SW 0 30.105 85.6 41 30
8/28/02 6:30 AM 75 71.2 71.2 71.3 71.1 100 71.2 0 4 SSE 0 30.114 85.1 42 30
8/28/02 7:00 AM 75 71.2 71.2 71.3 71 100 71.2 0 2 SSE 0 30.124 85.3 42 30
8/28/02 7:30 AM 75 71 71 71.3 70.5 100 71 0 1 SSE 0 30.127 86.1 42 30
8/28/02 8:00 AM 75 70.9 70.9 72 70.3 100 70.9 0 4 ESE 0 30.132 85.8 42 30
8/28/02 8:30 AM 77 72.5 72.5 72.7 72 100 72.5 0 4 SSE 0 30.137 86.1 43 30
8/28/02 9:00 AM 77 72.8 72.8 73.2 72.6 100 72.8 1 5 ESE 0 30.142 86.3 42 30
8/28/02 9:30 AM 77 73.2 73.2 73.7 72.7 100 73.2 1 4 SSE 0 30.154 86 41 30
8/28/02 10:00 AM 78 73.7 73.7 74.3 72.8 100 73.7 0 3 S 0 30.155 85.8 41 30
8/28/02 10:30 AM 78 73.8 73.8 74.6 73.4 100 73.8 0 6 ESE 0 30.156 85.7 42 30
8/28/02 11:00 AM 78 74.1 74.1 74.9 73.6 100 74.1 0 5 ESE 0 30.165 85.6 41 30
8/28/02 11:30 AM 78 74.4 74.4 75.1 73.8 100 74.4 0 3 SW 0 30.169 85.6 41 30
8/28/02 12:00 PM 78 74.2 74.2 74.8 73.8 100 74.2 0 5 E 0 30.165 85.3 41 30
8/28/02 12:30 PM 78 74.1 74.1 74.6 73.6 100 74.1 0 4 SSE 0 30.158 85.2 41 30
8/28/02 1:00 PM 78 73.8 73.8 74.4 73.1 100 73.8 0 4 SSE 0 30.159 85.3 41 30
8/28/02 1:30 PM 79 75.4 75.4 76.8 73.5 100 75.4 0 4 WSW 0 30.156 86.3 42 30
8/28/02 2:00 PM 78 73.9 73.9 75.1 73.3 100 73.9 0 3 SE 0 30.148 86.6 42 30
8/28/02 2:30 PM 77 73 73 73.7 72.5 100 73 0 2 SE 0 30.144 86.6 42 30
8/28/02 3:00 PM 76 72.4 72.4 72.8 72 100 72.4 0 2 SE 0 30.14 86.4 42 30
8/28/02 3:30 PM 76 71.5 71.5 72.5 70.7 100 71.5 0 2 SE 0 30.136 86.3 41 30
8/28/02 4:00 PM 74 70.2 70.2 70.7 69.5 100 70.2 0 2 SE 0 30.146 86.2 41 30
8/28/02 4:30 PM 74 69.9 69.9 70.2 69.5 100 69.9 0 1 SE 0 30.149 86 41 30
8/28/02 5:00 PM 74 69.8 69.8 70.1 69.3 100 69.8 0 2 SE 0 30.144 85.9 41 30
8/28/02 5:30 PM 74 70 70 70.3 69.7 100 70 0 3 SE 0 30.14 85.8 41 30
8/28/02 6:00 PM 74 69.7 69.7 70.3 69.4 100 69.7 0 0 --- 0 30.135 86.5 42 30
8/28/02 6:30 PM 74 69.6 69.6 69.8 69.4 100 69.6 0 2 S 0 30.136 87 43 30
8/28/02 7:00 PM 72 69.2 69.2 69.6 68.3 100 69.2 0 3 S 0 30.139 87.5 43 30
8/28/02 7:30 PM 70 68.2 68.2 68.4 68 100 68.2 0 2 S 0 30.135 87.4 43 30
8/28/02 8:00 PM 70 68.3 68.3 68.5 68 100 68.3 0 4 SW 0 30.137 87.4 43 30
8/28/02 8:30 PM 70 68 68 68.6 67.5 100 68 0 5 SE 0 30.138 88.2 44 30
8/28/02 9:00 PM 72 68.6 68.6 68.9 68.4 100 68.6 0 4 WSW 0 30.14 88.2 45 30
8/28/02 9:30 PM 72 68.5 68.5 68.8 68.2 100 68.5 0 3 S 0 30.135 88 44 30
8/28/02 10:00 PM 70 68.1 68.1 68.5 67.8 100 68.1 0 4 S 0 30.136 88.2 44 30
8/28/02 10:30 PM 70 68.1 68.1 69.7 66.2 100 68.1 0 3 E 0 30.128 88.7 44 30
8/28/02 11:00 PM 64.2 64.2 64.2 66.2 63.3 100 64.2 0 3 SSW 0 30.122 88.6 44 30
8/28/02 11:30 PM 62.5 62.5 62.5 63.9 61.3 100 62.5 0 2 SSW 0.03 30.118 88.8 44 30
8/29/02 12:00 AM 61.4 61.4 61.4 61.8 61.1 100 61.4 0 0 --- 0 30.101 88.9 44 30
8/29/02 12:30 AM 61.9 61.9 61.9 62.1 61.7 100 61.9 0 2 S 0 30.09 88.7 44 30
8/29/02 1:00 AM 61.9 61.9 61.9 62.1 61.7 100 61.9 0 1 S 0.01 30.082 88.7 44 30
8/29/02 1:30 AM 61.8 61.8 61.8 62 61.7 100 61.8 0 0 --- 0 30.069 88.8 44 30
8/29/02 2:00 AM 61.8 61.8 61.8 61.9 61.6 100 61.8 0 0 --- 0.01 30.06 88.8 44 30
8/29/02 2:30 AM 61.7 61.7 61.7 62 61.6 100 61.7 0 1 --- 0.01 30.048 88.8 44 30
8/29/02 3:00 AM 60.7 60.7 60.7 61.7 59.9 100 60.7 0 4 SW 0.09 30.043 89.1 44 30
8/29/02 3:30 AM 59.7 59.7 59.7 60.1 59.4 100 59.7 0 2 SW 0.02 30.031 88.9 44 30
8/29/02 4:00 AM 59.4 59.4 59.4 59.7 59.2 100 59.4 0 3 SW 0.02 30.022 88.7 44 30
8/29/02 4:30 AM 59.4 59.4 59.4 59.7 59.2 100 59.4 0 2 SW 0 30.022 88.8 44 30
8/29/02 5:00 AM 59.6 59.6 59.6 59.8 59.4 100 59.6 0 2 SW 0 30.016 88.7 44 30
8/29/02 5:30 AM 59.7 59.7 59.7 59.9 59.6 100 59.7 0 2 SW 0.01 30.005 88.8 44 30
8/29/02 6:00 AM 59.6 59.6 59.6 59.8 59.3 100 59.6 0 7 SW 0.08 30.003 89 44 30
8/29/02 6:30 AM 59.4 59.4 59.4 59.6 59.2 100 59.4 0 3 WSW 0.08 29.995 88.7 42 30
8/29/02 7:00 AM 59.3 59.3 59.3 59.5 59.1 100 59.3 0 3 W 0.13 29.99 88.2 44 30
8/29/02 7:30 AM 59.2 59.2 59.2 59.4 59.1 100 59.2 0 5 SW 0.07 29.966 88.9 44 30
8/29/02 8:00 AM 59.2 59.2 59.2 59.4 59 100 59.2 0 5 WSW 0.1 29.972 89.2 44 30
8/29/02 8:30 AM 59.2 59.2 59.2 59.4 59 100 59.2 0 4 SW 0.14 29.964 89.7 45 30
8/29/02 9:00 AM 59.6 59.6 59.6 59.9 59.2 100 59.6 0 4 SW 0.1 29.962 89.7 44 30
8/29/02 9:30 AM 60.3 60.3 60.3 60.7 59.8 100 60.3 1 4 SW 0.01 29.987 89.4 44 30
8/29/02 10:00 AM 60.8 60.8 60.8 61.3 60.3 100 60.8 0 5 SW 0 29.974 89.2 44 30
8/29/02 10:30 AM 61.9 61.9 61.9 62.4 61.3 100 61.9 0 2 WSW 0 29.961 89.2 44 30
8/29/02 11:00 AM 62.4 62.4 62.4 62.7 62.2 100 62.4 1 6 WSW 0 29.959 89.1 44 30
8/29/02 11:30 AM 63.2 63.2 63.2 64.2 62.5 100 63.2 1 7 WSW 0 29.95 89 44 30
8/29/02 12:00 PM 64.1 64.1 64.1 64.8 63.5 100 64.1 0 4 WSW 0 29.943 89 44 30
8/29/02 12:30 PM 64.3 64.3 64.3 64.7 63.9 100 64.3 1 5 WSW 0 29.942 89 44 30
8/29/02 1:00 PM 63.8 63.8 63.8 64.1 63.5 100 63.8 0 5 WSW 0 29.944 89 44 30
8/29/02 1:30 PM 64 64 64 64.2 63.9 100 64 0 3 N 0 29.951 88.9 44 30
8/29/02 2:00 PM 64 64 64 64.2 63.5 100 64 0 4 WSW 0 29.958 88.9 44 30
8/29/02 2:30 PM 63.5 63.5 63.5 63.7 63.3 100 63.5 1 4 WSW 0 29.955 88.8 44 30
8/29/02 3:00 PM 63.5 63.5 63.5 63.8 63.3 100 63.5 1 4 SW 0 29.944 88.8 44 30
8/29/02 3:30 PM 63.9 63.9 63.9 64.2 63.6 100 63.9 1 3 WSW 0 29.95 88.8 44 30
8/29/02 4:00 PM 63.9 63.9 63.9 64.2 63.7 100 63.9 1 5 WSW 0 29.949 88.7 44 30
8/29/02 4:30 PM 63.6 63.6 63.6 63.9 63.5 100 63.6 0 3 WSW 0 29.948 88.7 44 30
8/29/02 5:00 PM 63.9 63.9 63.9 64.4 63.3 100 63.9 1 5 WSW 0 29.946 88.7 44 30
8/29/02 5:30 PM 63.3 63.3 63.3 63.6 63 100 63.3 1 4 WSW 0 29.952 88.9 45 30
8/29/02 6:00 PM 63.2 63.2 63.2 63.4 62.8 100 63.2 1 6 WSW 0 29.955 88.7 45 30
8/29/02 6:30 PM 62.7 62.7 62.7 62.9 62.4 100 62.7 1 4 WSW 0 29.959 89 45 30
8/29/02 7:00 PM 61.9 61.9 61.9 62.5 61.6 100 61.9 1 5 WSW 0 29.961 88.3 45 30
8/29/02 7:30 PM 61.7 61.7 61.7 61.8 61.5 100 61.7 0 2 WSW 0 29.965 87.9 46 30
8/29/02 8:00 PM 61.4 61.4 61.4 61.6 61.2 100 61.4 0 4 WSW 0 29.968 87.7 46 30
8/29/02 8:30 PM 61.3 61.3 61.3 61.4 61.2 100 61.3 0 3 WSW 0 29.971 87.7 46 30
8/29/02 9:00 PM 61.3 61.3 61.3 61.4 61.1 100 61.3 0 3 WSW 0 29.978 88.1 47 30
8/29/02 9:30 PM 61.2 61.2 61.2 61.3 61 100 61.2 1 5 WSW 0 29.986 88.2 47 30
8/29/02 10:00 PM 61.2 61.2 61.2 61.3 61 100 61.2 0 5 WSW 0 29.985 88 47 30
8/29/02 10:30 PM 61.1 61.1 61.1 61.2 61 100 61.1 0 3 WSW 0 29.985 87.5 47 30
8/29/02 11:00 PM 61 61 61 61.2 60.9 100 61 0 4 WSW 0 29.991 87.8 47 30
8/29/02 11:30 PM 61.1 61.1 61.1 61.2 61 100 61.1 0 3 WSW 0 29.997 87.7 47 30
8/30/02 12:00 AM 61.2 61.2 61.2 61.3 61.1 100 61.2 0 3 WSW 0 29.997 87.9 46 30
8/30/02 12:30 AM 61.2 61.2 61.2 61.3 61 100 61.2 0 4 WSW 0 29.999 88 46 30
8/30/02 1:00 AM 61 61 61 61.1 60.8 100 61 0 4 WSW 0 29.997 87.9 46 30
8/30/02 1:30 AM 60.8 60.8 60.8 61 60.6 100 60.8 0 4 WSW 0 30.001 88 46 30
8/30/02 2:00 AM 60.8 60.8 60.8 60.9 60.7 100 60.8 0 2 WSW 0 30.002 88 45 30
8/30/02 2:30 AM 60.8 60.8 60.8 60.9 60.7 100 60.8 0 3 WSW 0 30.005 88 45 30
8/30/02 3:00 AM 60.8 60.8 60.8 60.9 60.6 100 60.8 0 3 WSW 0 30.004 88 45 30
8/30/02 3:30 AM 60.8 60.8 60.8 60.9 60.6 100 60.8 0 2 WSW 0 30.003 87.9 45 30
8/30/02 4:00 AM 60.9 60.9 60.9 61 60.7 100 60.9 0 2 WSW 0 30.002 87.9 45 30
8/30/02 4:30 AM 60.9 60.9 60.9 61 60.8 100 60.9 0 2 WSW 0 30.006 87.6 45 30
8/30/02 5:00 AM 60.9 60.9 60.9 61.1 60.6 100 60.9 0 2 WSW 0 30.011 87.3 45 30
8/30/02 5:30 AM 61 61 61 61.1 60.8 100 61 0 3 WSW 0 30.014 87.3 45 30
8/30/02 6:00 AM 61 61 61 61.1 60.9 100 61 0 2 WSW 0 30.017 87.4 45 30
8/30/02 6:30 AM 61.1 61.1 61.1 61.3 60.9 100 61.1 0 3 SW 0 30.035 87.4 46 30
8/30/02 7:00 AM 61.3 61.3 61.3 61.5 61.1 100 61.3 0 2 SW 0 30.043 87.6 46 30
8/30/02 7:30 AM 61.8 61.8 61.8 62.4 61.4 100 61.8 0 3 SW 0 30.06 87.6 47 30
8/30/02 8:00 AM 62.8 62.8 62.8 63 62.4 100 62.8 0 3 WSW 0 30.065 87.9 46 30
8/30/02 8:30 AM 62.8 62.8 62.8 63.4 62.5 100 62.8 0 4 WSW 0 30.072 87.8 45 30
8/30/02 9:00 AM 63.6 63.6 63.6 64.4 63.2 100 63.6 1 5 WSW 0 30.078 87.6 45 30
8/30/02 9:30 AM 63.8 63.8 63.8 64.2 63.4 100 63.8 1 5 WSW 0 30.085 87.6 45 30
8/30/02 10:00 AM 64.6 64.6 64.6 65.1 64.1 100 64.6 1 4 WSW 0 30.081 87.4 44 30
8/30/02 10:30 AM 66 66 66 67.5 64.5 100 66 1 4 WSW 0 30.085 87.1 44 30
8/30/02 11:00 AM 66.7 66.7 66.7 67.4 65.6 100 66.7 1 5 WSW 0 30.086 87.1 44 30
8/30/02 11:30 AM 66.5 66.5 66.5 67.4 66 100 66.5 0 3 WSW 0 30.086 87 45 30
8/30/02 12:00 PM 67.5 67.5 67.5 69.1 66.4 100 67.5 0 3 WSW 0 30.081 86.9 45 30
8/30/02 12:30 PM 74 69.8 69.8 70.6 68.9 100 69.8 0 4 WSW 0 30.088 86.9 45 30
8/30/02 1:00 PM 74 69.5 69.5 70.3 68.5 100 69.5 0 3 WSW 0 30.093 86.8 45 30
8/30/02 1:30 PM 74 69.6 69.6 70.2 68.7 100 69.6 1 4 WSW 0 30.092 86.8 45 30
8/30/02 2:00 PM 74 69.9 69.9 70.9 69 100 69.9 0 3 WSW 0 30.094 86.7 45 30
8/30/02 2:30 PM 74 69.9 69.9 71.2 68.7 100 69.9 0 3 WSW 0 30.091 86.7 45 30
8/30/02 3:00 PM 74 70.3 70.3 71.4 69.7 100 70.3 0 4 WSW 0 30.088 86.8 45 30
8/30/02 3:30 PM 75 71.3 71.3 72.3 70.1 100 71.3 0 2 SW 0 30.083 86.9 44 30
8/30/02 4:00 PM 75 71.2 71.2 72.4 70.4 100 71.2 0 3 SW 0 30.088 87.1 45 30
8/30/02 4:30 PM 75 71.1 71.1 72.6 70.6 100 71.1 0 1 SW 0 30.084 87.6 44 30
8/30/02 5:00 PM 76 71.7 71.7 72.8 70.6 100 71.7 0 2 SW 0 30.094 88.1 44 30
8/30/02 5:30 PM 76 71.8 71.8 72.5 70.6 100 71.8 0 2 SW 0 30.09 88.2 44 30
8/30/02 6:00 PM 76 71.7 71.7 72.4 70.6 100 71.7 0 2 SW 0 30.093 88 46 30
8/30/02 6:30 PM 75 71.3 71.3 72.6 70.6 100 71.3 0 0 --- 0 30.098 88 45 30
8/30/02 7:00 PM 75 71 71 72.6 69.8 100 71 0 0 --- 0 30.105 88.1 45 30
8/30/02 7:30 PM 72 68.9 68.9 69.7 67.8 100 68.9 0 0 --- 0 30.112 87.9 46 30
8/30/02 8:00 PM 66.7 66.7 66.7 67.8 65.8 100 66.7 0 0 --- 0 30.122 88.2 46 30
8/30/02 8:30 PM 65.1 65.1 65.1 65.8 64.6 100 65.1 0 0 --- 0 30.128 88.8 47 30
8/30/02 9:00 PM 64.1 64.1 64.1 64.8 63.4 100 64.1 0 0 --- 0 30.131 89.1 47 30
8/30/02 9:30 PM 63.1 63.1 63.1 63.5 62.7 100 63.1 0 0 --- 0 30.137 89.3 46 30
8/30/02 10:00 PM 62.4 62.4 62.4 62.7 62.1 100 62.4 0 0 --- 0 30.146 88.8 47 30
8/30/02 10:30 PM 61.9 61.9 61.9 62.3 61.5 100 61.9 0 0 --- 0 30.151 89 47 30
8/30/02 11:00 PM 61.6 61.6 61.6 61.9 61.2 100 61.6 0 0 --- 0 30.154 89.1 46 30
8/30/02 11:30 PM 61.2 61.2 61.2 61.8 60.5 100 61.2 0 0 --- 0 30.158 88.8 47 30
8/31/02 12:00 AM 60.6 60.6 60.6 60.9 60.3 100 60.6 0 0 --- 0 30.161 88.4 47 30
8/31/02 12:30 AM 60.3 60.3 60.3 60.5 60.1 100 60.3 0 0 --- 0 30.168 88.1 48 30
8/31/02 1:00 AM 60.1 60.1 60.1 60.3 59.8 100 60.1 0 0 --- 0 30.169 87.6 48 30
8/31/02 1:30 AM 59.8 59.8 59.8 60 59.6 100 59.8 0 0 --- 0 30.168 87.9 47 30
8/31/02 2:00 AM 59.4 59.4 59.4 60.1 59 100 59.4 0 0 --- 0 30.174 88.3 46 30
8/31/02 2:30 AM 59.1 59.1 59.1 59.4 58.8 100 59.1 0 0 --- 0 30.174 88.2 47 30
8/31/02 3:00 AM 58.8 58.8 58.8 59.2 58.5 100 58.8 0 0 --- 0 30.176 87.7 47 30
8/31/02 3:30 AM 58.2 58.2 58.2 58.5 57.9 100 58.2 0 0 --- 0 30.176 87.7 46 30
8/31/02 4:00 AM 57.9 57.9 57.9 58.3 57.6 100 57.9 0 0 --- 0 30.177 87.7 47 30
8/31/02 4:30 AM 57.5 57.5 57.5 57.8 57.2 100 57.5 0 0 --- 0 30.185 87.5 46 30
8/31/02 5:00 AM 57.4 57.4 57.4 57.6 57.2 100 57.4 0 0 --- 0 30.186 87.2 46 30
8/31/02 5:30 AM 57.6 57.6 57.6 58.1 57.2 100 57.6 0 0 --- 0 30.196 87 46 30
8/31/02 6:00 AM 58 58 58 58.2 57.7 100 58 0 0 --- 0 30.205 87 46 30
8/31/02 6:30 AM 58 58 58 58.1 57.7 100 58 0 0 --- 0 30.214 87.1 46 30
8/31/02 7:00 AM 58.4 58.4 58.4 58.7 58 100 58.4 0 0 --- 0 30.23 87.1 46 30
8/31/02 7:30 AM 58.8 58.8 58.8 60 58.4 100 58.8 0 0 --- 0 30.243 86.8 46 30
8/31/02 8:00 AM 61.9 61.9 61.9 64 60 100 61.9 0 1 SW 0 30.252 86.7 46 30
8/31/02 8:30 AM 65.6 65.6 65.6 66.8 64.1 100 65.6 0 2 SW 0 30.266 86.3 46 30
8/31/02 9:00 AM 67.8 67.8 67.8 68.9 66.8 100 67.8 0 2 SSE 0 30.277 86.3 46 30
8/31/02 9:30 AM 74 69.9 69.9 71.1 68.8 100 69.9 0 3 SW 0 30.289 86.2 47 30
8/31/02 10:00 AM 76 71.5 71.5 73 70.6 100 71.5 0 3 ESE 0 30.297 86.1 47 30
8/31/02 10:30 AM 78 73.8 73.8 74.6 72.6 100 73.8 0 5 ESE 0 30.301 86.2 47 30
8/31/02 11:00 AM 79 74.5 74.5 75.5 73.3 100 74.5 0 4 ESE 0 30.308 86.4 47 30
8/31/02 11:30 AM 78 74.1 74.1 76.6 72.7 100 74.1 1 5 E 0 30.315 86.2 47 30
8/31/02 12:00 PM 80 76 76 77.7 73.7 100 76 1 5 ESE 0 30.319 86.6 47 30
8/31/02 12:30 PM 77 73.2 73.2 73.8 72.7 100 73.2 0 3 ESE 0 30.316 86.9 47 30
8/31/02 1:00 PM 77 72.7 72.7 73.4 72.1 100 72.7 0 4 ESE 0 30.318 87.1 46 30
8/31/02 1:30 PM 79 75.4 75.4 77.9 72.9 100 75.4 1 5 ESE 0 30.326 87.4 46 30
8/31/02 2:00 PM 77 72.5 72.5 73.2 72.1 100 72.5 0 2 S 0 30.329 87.5 46 30
8/31/02 2:30 PM 76 71.6 71.6 72.5 70.9 100 71.6 0 3 S 0 30.323 86.8 47 30
8/31/02 3:00 PM 76 72.4 72.4 73.3 71.4 100 72.4 0 5 S 0 30.325 86.7 47 30
8/31/02 3:30 PM 76 71.7 71.7 72.8 71 100 71.7 0 2 S 0 30.325 86.9 47 30
8/31/02 4:00 PM 76 71.6 71.6 73.1 70.3 100 71.6 0 3 SSW 0 30.326 87.3 43 30
8/31/02 4:30 PM 74 69.9 69.9 71.2 69.3 100 69.9 0 4 SSW 0 30.329 87.3 45 30
8/31/02 5:00 PM 74 70.4 70.4 73 69.3 100 70.4 0 1 WSW 0 30.33 87.5 47 30
8/31/02 5:30 PM 72 69.3 69.3 70.6 68.6 100 69.3 0 5 ESE 0 30.331 87.9 47 30
8/31/02 6:00 PM 70 68.3 68.3 68.9 67.9 100 68.3 0 4 ESE 0 30.335 88.3 47 30
8/31/02 6:30 PM 67.7 67.7 67.7 67.9 67.5 100 67.7 0 2 SE 0 30.337 88.4 47 30
8/31/02 7:00 PM 67.2 67.2 67.2 67.6 66.5 100 67.2 0 3 SSE 0 30.344 88.5 46 30
8/31/02 7:30 PM 66.9 66.9 66.9 70.1 66 100 66.9 0 1 SSE 0 30.344 88.6 47 30
8/31/02 8:00 PM 70 68.2 68.2 69.8 67.1 100 68.2 0 1 SSE 0 30.341 88.6 47 30
8/31/02 8:30 PM 66 66 66 69.6 64.6 100 66 0 2 SSE 0 30.346 88.5 47 30
8/31/02 9:00 PM 66.5 66.5 66.5 68.3 65 100 66.5 0 3 ESE 0 30.35 88.9 47 30
8/31/02 9:30 PM 64.1 64.1 64.1 65 63.6 100 64.1 0 2 ESE 0 30.34 89.1 47 30
8/31/02 10:00 PM 63.6 63.6 63.6 63.7 63.5 100 63.6 0 1 SE 0 30.341 89.3 46 30
8/31/02 10:30 PM 63.6 63.6 63.6 63.8 63.4 100 63.6 0 1 SE 0 30.336 89.3 46 30
8/31/02 11:00 PM 63.5 63.5 63.5 63.7 63.4 100 63.5 0 2 SE 0 30.332 89.1 46 30
8/31/02 11:30 PM 63.4 63.4 63.4 63.5 63.2 100 63.4 0 3 SE 0 30.33 89.1 46 30